Time;durP1;ratioP1;P1;durP2;ratioP2;P2;SDS_P1;SDS_P2;PMS_P1;PMS_P2;Temp;Humidity;BMP_temperature;BMP_pressure;BME280_temperature;BME280_humidity;BME280_pressure;Samples;Min_cycle;Max_cycle;Signal;HPM_P1;HPM_P2
2022/05/05 00:00:17;;;;;;;10.63;8.95;;;;;;;;;;4990938;28;20074;-81
2022/05/05 00:02:46;;;;;;;12.23;8.95;;;;;;;;;;5059281;28;20138;-80
2022/05/05 00:05:15;;;;;;;12.07;8.60;;;;;;;;;;4995459;28;20521;-80
2022/05/05 00:07:44;;;;;;;11.63;9.05;;;;;;;;;;4995210;28;20066;-85
2022/05/05 00:15:46;;;;;;;10.07;9.10;;;;;;;;;;5008157;28;20481;-85
2022/05/05 00:18:14;;;;;;;9.27;8.35;;;;;;;;;;5013754;28;20149;-85
2022/05/05 00:20:43;;;;;;;9.93;8.93;;;;;;;;;;5013510;28;20137;-84
2022/05/05 00:23:10;;;;;;;11.80;8.85;;;;;;;;;;5012847;28;20073;-81
2022/05/05 00:25:40;;;;;;;12.27;9.48;;;;;;;;;;5013762;28;20538;-80
2022/05/05 00:28:10;;;;;;;10.18;9.00;;;;;;;;;;5013138;28;20511;-80
2022/05/05 00:30:39;;;;;;;11.43;8.98;;;;;;;;;;5013749;28;20053;-78
2022/05/05 00:33:07;;;;;;;11.93;8.88;;;;;;;;;;5013533;28;20077;-76
2022/05/05 00:35:35;;;;;;;14.77;9.23;;;;;;;;;;5012434;28;20081;-76
2022/05/05 00:38:03;;;;;;;11.18;10.07;;;;;;;;;;5013050;28;20048;-76
2022/05/05 00:40:31;;;;;;;11.57;8.75;;;;;;;;;;5013027;28;20125;-76
2022/05/05 00:42:59;;;;;;;9.77;8.77;;;;;;;;;;5013057;28;20057;-76
2022/05/05 00:45:29;;;;;;;10.30;8.30;;;;;;;;;;5079091;28;20058;-75
2022/05/05 00:48:08;;;;;;;8.98;7.38;;;;;;;;;;5012971;28;20049;-76
2022/05/05 00:50:37;;;;;;;11.07;7.95;;;;;;;;;;5012436;28;20050;-76
2022/05/05 00:53:05;;;;;;;12.80;8.30;;;;;;;;;;5013527;28;20505;-76
2022/05/05 00:55:37;;;;;;;12.35;8.18;;;;;;;;;;5012712;28;20054;-76
2022/05/05 00:58:05;;;;;;;8.50;7.60;;;;;;;;;;5012444;28;20049;-76
2022/05/05 01:00:34;;;;;;;10.05;8.45;;;;;;;;;;5012736;28;20050;-78
2022/05/05 01:03:02;;;;;;;8.20;7.40;;;;;;;;;;5011820;28;20142;-76
2022/05/05 01:05:32;;;;;;;9.80;8.38;;;;;;;;;;5012439;28;20050;-75
2022/05/05 01:08:01;;;;;;;9.55;7.93;;;;;;;;;;5013067;28;20054;-74
2022/05/05 01:10:34;;;;;;;7.88;6.80;;;;;;;;;;5011927;28;20045;-73
2022/05/05 01:13:02;;;;;;;7.45;6.75;;;;;;;;;;5000009;28;20405;-78
2022/05/05 01:15:30;;;;;;;11.73;6.55;;;;;;;;;;5073272;28;20045;-76
2022/05/05 01:18:00;;;;;;;8.15;7.35;;;;;;;;;;5006294;28;20041;-76
2022/05/05 01:20:28;;;;;;;15.23;7.85;;;;;;;;;;5006457;28;20038;-76
2022/05/05 01:22:57;;;;;;;10.00;7.53;;;;;;;;;;5012504;28;20458;-76
2022/05/05 01:28:15;;;;;;;11.10;7.22;;;;;;;;;;5012497;28;20067;-75
2022/05/05 01:30:45;;;;;;;8.13;7.28;;;;;;;;;;5012409;28;20049;-76
2022/05/05 01:33:16;;;;;;;8.95;7.20;;;;;;;;;;5012668;28;20393;-76
2022/05/05 01:35:51;;;;;;;9.45;7.38;;;;;;;;;;5011921;28;20535;-76
2022/05/05 01:38:21;;;;;;;9.25;8.30;;;;;;;;;;5013247;28;20046;-76
2022/05/05 01:40:49;;;;;;;9.50;7.50;;;;;;;;;;5011845;28;20082;-77
2022/05/05 01:43:21;;;;;;;9.45;7.90;;;;;;;;;;4993623;28;20484;-77
2022/05/05 01:45:50;;;;;;;11.63;8.18;;;;;;;;;;5006095;28;20058;-77
2022/05/05 01:48:19;;;;;;;8.80;7.85;;;;;;;;;;5005889;28;20050;-77
2022/05/05 01:50:51;;;;;;;10.50;7.68;;;;;;;;;;5012136;28;20092;-77
2022/05/05 01:53:38;;;;;;;9.75;8.30;;;;;;;;;;5014868;28;20077;-76
2022/05/05 01:56:08;;;;;;;10.48;9.38;;;;;;;;;;5012341;28;20057;-77
2022/05/05 01:58:39;;;;;;;13.30;8.15;;;;;;;;;;5011770;28;20058;-77
2022/05/05 02:01:07;;;;;;;11.10;9.73;;;;;;;;;;5011761;28;20054;-76
2022/05/05 02:03:36;;;;;;;10.73;8.80;;;;;;;;;;5011430;28;20137;-76
2022/05/05 02:06:07;;;;;;;10.85;8.18;;;;;;;;;;5012094;28;20049;-77
2022/05/05 02:08:37;;;;;;;8.98;8.13;;;;;;;;;;5078324;28;20053;-74
2022/05/05 02:11:07;;;;;;;10.07;8.70;;;;;;;;;;4998706;28;20050;-74
2022/05/05 02:13:40;;;;;;;11.05;9.00;;;;;;;;;;5006272;28;20080;-74
2022/05/05 02:16:08;;;;;;;10.73;8.15;;;;;;;;;;5005111;28;20510;-74
2022/05/05 02:18:37;;;;;;;9.23;8.30;;;;;;;;;;5005329;28;20133;-76
2022/05/05 02:21:07;;;;;;;10.98;7.60;;;;;;;;;;5008036;28;20042;-76
2022/05/05 02:23:35;;;;;;;11.63;8.13;;;;;;;;;;5077425;28;20034;-76
2022/05/05 02:26:04;;;;;;;9.70;7.80;;;;;;;;;;5010555;28;20465;-76
2022/05/05 02:28:34;;;;;;;10.02;8.20;;;;;;;;;;5011801;28;20056;-76
2022/05/05 02:31:02;;;;;;;8.95;8.05;;;;;;;;;;5009796;28;20076;-76
2022/05/05 02:33:30;;;;;;;9.30;7.85;;;;;;;;;;4992672;28;20092;-75
2022/05/05 02:38:47;;;;;;;11.13;7.35;;;;;;;;;;4992731;28;20058;-80
2022/05/05 02:41:15;;;;;;;12.15;7.93;;;;;;;;;;5058791;28;20129;-79
2022/05/05 02:43:44;;;;;;;11.65;9.23;;;;;;;;;;4992223;28;20061;-74
2022/05/05 02:46:12;;;;;;;12.43;8.48;;;;;;;;;;4993043;28;20575;-75
2022/05/05 02:48:41;;;;;;;10.85;8.05;;;;;;;;;;4992322;28;20058;-74
2022/05/05 02:51:10;;;;;;;9.00;8.18;;;;;;;;;;4992005;28;20072;-73
2022/05/05 02:56:24;;;;;;;13.25;8.43;;;;;;;;;;4992235;28;20078;-74
2022/05/05 02:58:53;;;;;;;8.38;7.57;;;;;;;;;;4991941;28;20042;-74
2022/05/05 03:01:22;;;;;;;8.82;7.93;;;;;;;;;;4992122;28;20042;-75
2022/05/05 03:03:52;;;;;;;9.88;8.82;;;;;;;;;;4992325;28;20072;-76
2022/05/05 03:06:21;;;;;;;8.10;7.30;;;;;;;;;;4992060;28;20038;-76
2022/05/05 03:08:49;;;;;;;10.13;7.90;;;;;;;;;;5000307;28;20054;-76
2022/05/05 03:11:19;;;;;;;8.50;6.78;;;;;;;;;;5010618;28;20050;-76
2022/05/05 03:13:47;;;;;;;9.23;7.88;;;;;;;;;;5010482;28;20050;-76
2022/05/05 03:16:15;;;;;;;8.55;7.75;;;;;;;;;;5010695;28;20050;-76
2022/05/05 03:18:45;;;;;;;7.78;6.97;;;;;;;;;;5011230;28;20062;-76
2022/05/05 03:21:13;;;;;;;8.68;7.78;;;;;;;;;;5010274;28;20141;-76
2022/05/05 03:23:41;;;;;;;10.02;8.68;;;;;;;;;;5010671;28;20058;-76
2022/05/05 03:26:10;;;;;;;8.48;7.57;;;;;;;;;;5010911;28;20057;-76
2022/05/05 03:28:38;;;;;;;10.63;7.88;;;;;;;;;;5010329;28;20157;-76
2022/05/05 03:31:07;;;;;;;8.95;7.78;;;;;;;;;;5010572;28;20061;-77
2022/05/05 03:33:36;;;;;;;8.52;7.60;;;;;;;;;;5010371;28;20053;-76
2022/05/05 03:36:04;;;;;;;8.80;7.50;;;;;;;;;;5010622;28;20053;-75
2022/05/05 03:38:32;;;;;;;12.45;7.78;;;;;;;;;;5011786;28;20045;-76
2022/05/05 03:41:01;;;;;;;8.23;7.35;;;;;;;;;;5014082;28;20110;-75
2022/05/05 03:43:30;;;;;;;10.25;8.02;;;;;;;;;;5014064;28;20046;-76
2022/05/05 03:45:58;;;;;;;9.95;8.90;;;;;;;;;;5013620;28;20424;-76
2022/05/05 03:48:26;;;;;;;8.63;7.55;;;;;;;;;;5013926;28;20058;-75
2022/05/05 03:50:55;;;;;;;11.65;7.65;;;;;;;;;;5013639;28;20041;-75
2022/05/05 03:53:25;;;;;;;13.48;8.27;;;;;;;;;;5014057;28;20452;-76
2022/05/05 03:55:55;;;;;;;9.63;7.53;;;;;;;;;;5013497;28;20125;-76
2022/05/05 03:58:23;;;;;;;10.80;7.95;;;;;;;;;;5013689;28;20050;-71
2022/05/05 04:00:52;;;;;;;11.98;9.25;;;;;;;;;;5012668;28;20053;-70
2022/05/05 04:03:32;;;;;;;10.00;8.15;;;;;;;;;;5013263;28;20080;-70
2022/05/05 04:06:12;;;;;;;11.40;9.50;;;;;;;;;;5013190;28;20133;-70
2022/05/05 04:08:40;;;;;;;9.63;8.63;;;;;;;;;;5029001;28;20125;-70
2022/05/05 04:11:08;;;;;;;13.90;8.65;;;;;;;;;;5015434;28;20511;-70
2022/05/05 04:13:36;;;;;;;15.20;9.60;;;;;;;;;;5015989;28;20065;-70
2022/05/05 04:16:08;;;;;;;11.00;8.75;;;;;;;;;;5078702;28;20082;-71
2022/05/05 04:18:37;;;;;;;10.18;7.68;;;;;;;;;;5012363;28;20533;-71
2022/05/05 04:21:05;;;;;;;9.15;7.63;;;;;;;;;;5015027;28;20054;-70
2022/05/05 04:23:34;;;;;;;10.70;7.15;;;;;;;;;;5013425;28;20137;-70
2022/05/05 04:26:11;;;;;;;8.52;7.03;;;;;;;;;;5016226;28;20439;-68
2022/05/05 04:28:42;;;;;;;10.02;7.25;;;;;;;;;;5009372;28;20054;-69
2022/05/05 04:31:15;;;;;;;10.02;7.53;;;;;;;;;;5011651;28;20037;-70
2022/05/05 04:33:44;;;;;;;11.75;8.60;;;;;;;;;;5020883;28;20379;-69
2022/05/05 04:36:14;;;;;;;8.85;7.95;;;;;;;;;;5006843;28;20057;-70
2022/05/05 04:38:42;;;;;;;9.18;6.85;;;;;;;;;;5007132;28;20088;-70
2022/05/05 04:41:11;;;;;;;11.38;6.95;;;;;;;;;;5012196;28;20419;-69
2022/05/05 04:43:39;;;;;;;7.63;6.35;;;;;;;;;;5013248;28;20057;-69
2022/05/05 04:46:07;;;;;;;7.82;6.38;;;;;;;;;;5012140;28;20107;-67
2022/05/05 04:48:36;;;;;;;7.68;6.93;;;;;;;;;;5012370;28;20056;-67
2022/05/05 04:51:04;;;;;;;11.93;7.68;;;;;;;;;;5012394;28;20042;-67
2022/05/05 04:53:33;;;;;;;11.80;7.70;;;;;;;;;;5012660;28;20128;-68
2022/05/05 04:56:00;;;;;;;12.23;8.05;;;;;;;;;;5011717;28;20041;-71
2022/05/05 04:58:28;;;;;;;10.82;9.23;;;;;;;;;;5011958;28;20038;-70
2022/05/05 05:00:58;;;;;;;11.68;8.57;;;;;;;;;;5011808;28;20054;-69
2022/05/05 05:03:32;;;;;;;11.90;9.25;;;;;;;;;;5011234;28;20046;-70
2022/05/05 05:06:03;;;;;;;9.82;8.80;;;;;;;;;;5010941;28;20045;-70
2022/05/05 05:08:31;;;;;;;13.48;9.43;;;;;;;;;;5009976;28;20050;-70
2022/05/05 05:11:00;;;;;;;11.90;8.77;;;;;;;;;;5077437;28;20091;-71
2022/05/05 05:13:28;;;;;;;13.15;9.52;;;;;;;;;;5011588;28;20560;-70
2022/05/05 05:15:57;;;;;;;14.50;10.68;;;;;;;;;;5012420;28;20058;-71
2022/05/05 05:18:26;;;;;;;11.43;10.25;;;;;;;;;;5011928;28;20053;-69
2022/05/05 05:20:54;;;;;;;9.27;8.43;;;;;;;;;;5010017;28;20046;-70
2022/05/05 05:23:22;;;;;;;10.65;9.55;;;;;;;;;;5010245;28;20050;-70
2022/05/05 05:25:50;;;;;;;14.00;10.50;;;;;;;;;;5009899;28;20560;-69
2022/05/05 05:28:19;;;;;;;9.88;8.90;;;;;;;;;;5010056;28;20129;-70
2022/05/05 05:30:49;;;;;;;12.48;9.30;;;;;;;;;;5009517;28;20050;-70
2022/05/05 05:33:18;;;;;;;13.02;9.32;;;;;;;;;;5010485;28;20057;-70
2022/05/05 05:35:46;;;;;;;10.50;9.45;;;;;;;;;;5004901;28;20058;-70
2022/05/05 05:38:14;;;;;;;12.65;9.15;;;;;;;;;;4991121;28;20050;-69
2022/05/05 05:40:42;;;;;;;10.68;8.40;;;;;;;;;;5057774;28;20054;-69
2022/05/05 05:43:10;;;;;;;10.15;8.70;;;;;;;;;;4990827;28;20096;-68
2022/05/05 05:45:39;;;;;;;11.55;9.60;;;;;;;;;;4991047;28;20459;-68
2022/05/05 05:48:09;;;;;;;13.05;9.85;;;;;;;;;;4990769;28;20074;-68
2022/05/05 05:50:38;;;;;;;10.55;9.45;;;;;;;;;;5003833;28;20133;-69
2022/05/05 05:53:06;;;;;;;12.90;8.88;;;;;;;;;;5005340;28;20050;-69
2022/05/05 05:55:33;;;;;;;12.18;9.38;;;;;;;;;;5010805;28;20034;-69
2022/05/05 05:58:02;;;;;;;11.23;8.65;;;;;;;;;;5011200;28;20054;-68
2022/05/05 06:00:32;;;;;;;17.85;9.55;;;;;;;;;;5009818;28;20077;-69
2022/05/05 06:05:46;;;;;;;15.85;9.90;;;;;;;;;;5007796;28;20062;-70
2022/05/05 06:08:15;;;;;;;13.07;9.88;;;;;;;;;;4993537;28;20493;-71
2022/05/05 06:10:43;;;;;;;14.65;10.55;;;;;;;;;;5010198;28;20129;-70
2022/05/05 06:13:12;;;;;;;14.57;10.63;;;;;;;;;;5008966;28;20473;-71
2022/05/05 06:15:41;;;;;;;15.05;11.00;;;;;;;;;;5006779;28;20390;-71
2022/05/05 06:18:10;;;;;;;16.65;10.50;;;;;;;;;;4991497;28;20054;-72
2022/05/05 06:20:38;;;;;;;18.13;11.23;;;;;;;;;;4990935;28;20045;-71
2022/05/05 06:23:07;;;;;;;15.60;11.02;;;;;;;;;;4992135;28;20046;-71
2022/05/05 06:25:36;;;;;;;17.40;11.15;;;;;;;;;;5009791;28;20405;-71
2022/05/05 06:28:05;;;;;;;15.23;11.15;;;;;;;;;;5010747;28;20045;-71
2022/05/05 06:30:35;;;;;;;23.10;12.35;;;;;;;;;;5011566;28;20091;-71
2022/05/05 06:33:03;;;;;;;16.98;10.40;;;;;;;;;;5010288;28;20091;-72
2022/05/05 06:35:32;;;;;;;17.25;11.68;;;;;;;;;;5005649;28;20493;-72
2022/05/05 06:38:00;;;;;;;20.35;11.57;;;;;;;;;;4991954;28;20058;-71
2022/05/05 06:40:29;;;;;;;11.73;9.98;;;;;;;;;;4992124;28;20050;-71
2022/05/05 06:42:58;;;;;;;18.38;10.68;;;;;;;;;;4992294;28;20058;-71
2022/05/05 06:45:26;;;;;;;14.07;10.60;;;;;;;;;;4991691;28;20115;-71
2022/05/05 06:47:54;;;;;;;14.07;9.70;;;;;;;;;;4992178;28;20054;-71
2022/05/05 06:50:23;;;;;;;17.00;9.95;;;;;;;;;;4991800;28;20038;-71
2022/05/05 06:52:54;;;;;;;16.30;9.32;;;;;;;;;;5005500;28;20074;-71
2022/05/05 06:55:22;;;;;;;16.42;12.18;;;;;;;;;;5010343;28;20077;-71
2022/05/05 06:57:51;;;;;;;17.85;11.57;;;;;;;;;;5010751;28;20099;-71
2022/05/05 07:00:19;;;;;;;12.80;11.55;;;;;;;;;;5010646;28;20052;-71
2022/05/05 07:02:47;;;;;;;19.92;11.85;;;;;;;;;;5010281;28;20493;-71
2022/05/05 07:05:27;;;;;;;12.45;9.73;;;;;;;;;;5010179;28;20087;-71
2022/05/05 07:07:56;;;;;;;21.10;11.68;;;;;;;;;;4991710;28;20053;-70
2022/05/05 07:13:12;;;;;;;20.33;11.93;;;;;;;;;;4991771;28;20504;-70
2022/05/05 07:15:41;;;;;;;15.82;12.52;;;;;;;;;;4992034;28;20405;-71
2022/05/05 07:18:09;;;;;;;12.85;11.55;;;;;;;;;;4991450;28;20096;-71
2022/05/05 07:20:37;;;;;;;14.07;12.32;;;;;;;;;;4991912;28;20069;-71
2022/05/05 07:23:11;;;;;;;17.92;12.73;;;;;;;;;;4991599;28;20042;-71
2022/05/05 07:25:42;;;;;;;20.92;12.45;;;;;;;;;;5004335;28;20133;-70
2022/05/05 07:28:10;;;;;;;18.38;12.60;;;;;;;;;;5010010;28;20049;-71
2022/05/05 07:30:38;;;;;;;19.88;13.70;;;;;;;;;;5009983;28;20052;-71
2022/05/05 07:33:07;;;;;;;18.48;12.15;;;;;;;;;;5010476;28;20054;-71
2022/05/05 07:35:39;;;;;;;18.30;11.80;;;;;;;;;;5040068;28;20050;-71
2022/05/05 07:38:07;;;;;;;20.00;12.82;;;;;;;;;;5010222;28;20065;-71
2022/05/05 07:40:35;;;;;;;26.95;14.10;;;;;;;;;;5009434;28;20167;-70
2022/05/05 07:43:04;;;;;;;25.20;13.38;;;;;;;;;;5010633;28;20076;-70
2022/05/05 07:45:33;;;;;;;14.52;10.75;;;;;;;;;;5077690;28;20118;-71
2022/05/05 07:48:02;;;;;;;14.75;11.75;;;;;;;;;;5009614;28;20087;-69
2022/05/05 07:50:31;;;;;;;18.42;11.85;;;;;;;;;;5008741;28;20053;-71
2022/05/05 07:53:00;;;;;;;23.13;12.57;;;;;;;;;;5000174;28;20050;-71
2022/05/05 07:55:28;;;;;;;16.98;12.45;;;;;;;;;;5009585;28;20552;-71
2022/05/05 07:57:57;;;;;;;20.75;12.52;;;;;;;;;;5009606;28;20062;-66
2022/05/05 08:00:26;;;;;;;19.67;12.18;;;;;;;;;;5008810;28;20060;-66
2022/05/05 08:02:54;;;;;;;13.70;10.75;;;;;;;;;;5009417;28;20056;-66
2022/05/05 08:05:24;;;;;;;17.90;12.93;;;;;;;;;;5006229;28;20072;-66
2022/05/05 08:07:51;;;;;;;17.13;11.77;;;;;;;;;;5005800;28;20070;-66
2022/05/05 08:10:21;;;;;;;22.05;10.20;;;;;;;;;;4996418;28;20050;-66
2022/05/05 08:12:49;;;;;;;12.20;10.48;;;;;;;;;;5009439;28;20050;-66
2022/05/05 08:15:17;;;;;;;17.13;11.70;;;;;;;;;;5072366;28;20061;-66
2022/05/05 08:17:47;;;;;;;14.88;11.88;;;;;;;;;;4991158;28;20047;-66
2022/05/05 08:20:17;;;;;;;21.70;12.27;;;;;;;;;;4990235;28;20402;-66
2022/05/05 08:22:46;;;;;;;15.88;12.23;;;;;;;;;;5007801;28;20038;-66
2022/05/05 08:30:47;;;;;;;14.13;12.73;;;;;;;;;;5012523;28;20042;-66
2022/05/05 08:33:16;;;;;;;19.98;14.60;;;;;;;;;;5013378;28;20052;-66
2022/05/05 08:35:44;;;;;;;17.15;14.23;;;;;;;;;;5009150;28;20106;-67
2022/05/05 08:38:13;;;;;;;14.75;12.32;;;;;;;;;;4993637;28;20070;-67
2022/05/05 08:40:41;;;;;;;19.23;13.73;;;;;;;;;;4994380;28;20052;-67
2022/05/05 08:43:11;;;;;;;18.83;13.38;;;;;;;;;;4994000;28;20050;-66
2022/05/05 08:45:39;;;;;;;19.88;13.20;;;;;;;;;;4993864;28;20055;-67
2022/05/05 08:48:11;;;;;;;23.50;15.45;;;;;;;;;;5001797;28;20073;-64
2022/05/05 08:50:44;;;;;;;31.88;15.02;;;;;;;;;;5008394;28;20074;-64
2022/05/05 08:53:16;;;;;;;16.75;13.05;;;;;;;;;;4993623;28;20050;-65
2022/05/05 08:55:45;;;;;;;14.82;13.23;;;;;;;;;;5013786;28;20042;-64
2022/05/05 08:58:13;;;;;;;17.40;13.45;;;;;;;;;;4999296;28;20497;-64
2022/05/05 09:00:43;;;;;;;13.90;12.50;;;;;;;;;;5069633;28;20073;-64
2022/05/05 09:03:11;;;;;;;33.55;13.95;;;;;;;;;;5012435;28;20149;-64
2022/05/05 09:05:45;;;;;;;19.42;11.80;;;;;;;;;;5011534;28;20065;-64
2022/05/05 09:08:34;;;;;;;17.55;11.18;;;;;;;;;;5008552;28;20054;-64
2022/05/05 09:11:04;;;;;;;15.63;12.50;;;;;;;;;;4995071;28;20058;-64
2022/05/05 09:13:34;;;;;;;12.27;11.07;;;;;;;;;;4993602;28;20055;-64
2022/05/05 09:16:03;;;;;;;15.02;13.25;;;;;;;;;;4993202;28;20413;-64
2022/05/05 09:18:33;;;;;;;14.95;13.38;;;;;;;;;;4993488;28;20525;-64
2022/05/05 09:21:06;;;;;;;16.95;15.13;;;;;;;;;;4993284;28;20133;-64
2022/05/05 09:23:36;;;;;;;;;;;;;;;;;;5006196;28;20042;-64
2022/05/05 09:26:06;;;;;;;17.38;15.63;;;;;;;;;;5005754;28;19921;-64
2022/05/05 09:28:35;;;;;;;20.60;17.90;;;;;;;;;;5006206;28;20132;-64
2022/05/05 09:31:08;;;;;;;20.05;17.65;;;;;;;;;;5012128;28;20560;-64
2022/05/05 09:33:36;;;;;;;22.13;18.75;;;;;;;;;;5011175;28;20049;-64
2022/05/05 09:36:25;;;;;;;20.45;18.33;;;;;;;;;;4998390;28;20094;-64
2022/05/05 09:39:03;;;;;;;19.95;17.05;;;;;;;;;;4995732;28;20088;-64
2022/05/05 09:41:33;;;;;;;25.63;18.65;;;;;;;;;;5005128;28;20509;-64
2022/05/05 09:44:13;;;;;;;22.58;18.73;;;;;;;;;;5011100;28;20517;-64
2022/05/05 09:46:43;;;;;;;23.60;19.23;;;;;;;;;;5011782;28;20061;-65
2022/05/05 09:49:19;;;;;;;23.92;18.25;;;;;;;;;;5011064;28;20409;-69
2022/05/05 09:57:45;;;;;;;25.05;21.48;;;;;;;;;;5009870;28;20465;-68
2022/05/05 10:00:44;;;;;;;26.27;22.20;;;;;;;;;;5010443;28;20067;-68
2022/05/05 10:06:16;;;;;;;26.42;21.27;;;;;;;;;;5066523;28;20052;-69
2022/05/05 10:08:48;;;;;;;25.50;20.98;;;;;;;;;;5005218;28;20084;-71
2022/05/05 10:11:19;;;;;;;26.65;20.92;;;;;;;;;;5011162;28;20700;-72
2022/05/05 10:13:49;;;;;;;25.13;21.98;;;;;;;;;;5011218;28;20060;-71
2022/05/05 10:16:21;;;;;;;26.27;21.45;;;;;;;;;;5011361;28;20087;-71
2022/05/05 10:18:50;;;;;;;24.70;22.17;;;;;;;;;;5011103;28;20045;-71
2022/05/05 10:21:42;;;;;;;31.98;23.77;;;;;;;;;;5011388;28;20940;-71
2022/05/05 10:24:29;;;;;;;26.23;23.52;;;;;;;;;;5010925;28;20049;-70
2022/05/05 10:27:01;;;;;;;29.80;23.50;;;;;;;;;;5011353;28;20091;-69
2022/05/05 10:29:36;;;;;;;24.15;21.48;;;;;;;;;;5076724;28;20064;-71
2022/05/05 10:32:20;;;;;;;27.13;23.73;;;;;;;;;;5011385;28;20054;-70
2022/05/05 10:34:53;;;;;;;26.83;22.25;;;;;;;;;;5010973;28;20153;-70
2022/05/05 10:37:32;;;;;;;28.00;24.15;;;;;;;;;;5071672;28;20069;-71
2022/05/05 10:40:07;;;;;;;27.88;21.63;;;;;;;;;;5006636;28;20050;-70
2022/05/05 10:42:57;;;;;;;30.63;23.80;;;;;;;;;;5010759;28;20054;-71
2022/05/05 10:45:27;;;;;;;29.00;22.38;;;;;;;;;;5015284;28;20068;-70
2022/05/05 10:47:57;;;;;;;24.38;21.75;;;;;;;;;;5010650;28;20054;-70
2022/05/05 10:53:30;;;;;;;24.83;22.17;;;;;;;;;;4991668;28;20078;-71
2022/05/05 10:56:00;;;;;;;26.55;23.17;;;;;;;;;;4992623;28;20054;-71
2022/05/05 10:59:03;;;;;;;24.35;21.38;;;;;;;;;;5003270;28;20102;-69
2022/05/05 11:01:56;;;;;;;29.92;21.15;;;;;;;;;;5010271;28;20052;-70
2022/05/05 11:04:31;;;;;;;28.48;22.88;;;;;;;;;;5010077;28;20046;-72
2022/05/05 11:07:29;;;;;;;27.20;24.23;;;;;;;;;;4996995;28;20054;-71
2022/05/05 11:09:59;;;;;;;26.23;23.45;;;;;;;;;;4991741;28;20080;-71
2022/05/05 11:12:33;;;;;;;30.15;23.63;;;;;;;;;;4992253;28;20455;-70
2022/05/05 11:23:57;;;;;;;33.55;29.88;;;;;;;;;;5009746;28;20145;-72
2022/05/05 11:26:25;;;;;;;37.60;28.65;;;;;;;;;;5009732;28;20049;-72
2022/05/05 11:29:00;;;;;;;34.47;27.95;;;;;;;;;;5010109;28;20077;-72
2022/05/05 11:31:30;;;;;;;37.95;29.15;;;;;;;;;;5006158;28;20048;-72
2022/05/05 11:34:01;;;;;;;33.10;29.48;;;;;;;;;;5009782;28;20501;-71
2022/05/05 11:36:33;;;;;;;37.42;27.70;;;;;;;;;;5007064;28;20070;-71
2022/05/05 11:39:03;;;;;;;31.55;26.42;;;;;;;;;;5009699;28;20119;-71
2022/05/05 11:41:32;;;;;;;31.90;27.63;;;;;;;;;;5007424;28;20046;-72
2022/05/05 11:44:17;;;;;;;34.15;29.52;;;;;;;;;;5009933;28;20493;-71
2022/05/05 11:46:46;;;;;;;40.63;31.50;;;;;;;;;;5009427;28;20082;-70
2022/05/05 11:49:14;;;;;;;31.80;26.95;;;;;;;;;;5009608;28;20060;-71
2022/05/05 11:51:43;;;;;;;39.70;27.20;;;;;;;;;;5009648;28;20050;-71
2022/05/05 11:54:16;;;;;;;34.80;29.95;;;;;;;;;;5009707;28;20056;-71
2022/05/05 11:56:46;;;;;;;34.03;26.50;;;;;;;;;;5009485;28;20050;-72
2022/05/05 12:02:10;;;;;;;33.15;27.15;;;;;;;;;;5010955;28;20121;-71
2022/05/05 12:04:43;;;;;;;31.67;28.27;;;;;;;;;;5013163;28;20052;-72
2022/05/05 12:07:18;;;;;;;29.77;26.58;;;;;;;;;;5012069;28;21525;-72
2022/05/05 12:09:51;;;;;;;34.35;28.58;;;;;;;;;;5013458;28;20053;-71
2022/05/05 12:12:21;;;;;;;;;;;;;;;;;;5012708;28;20574;-70
2022/05/05 12:14:52;;;;;;;31.98;26.77;;;;;;;;;;5012269;28;20280;-71
2022/05/05 12:17:23;;;;;;;31.45;27.27;;;;;;;;;;5010628;28;20050;-71
2022/05/05 12:19:54;;;;;;;37.33;27.35;;;;;;;;;;5013446;28;20050;-71
2022/05/05 12:22:31;;;;;;;29.63;26.42;;;;;;;;;;5012534;28;20042;-78
2022/05/05 12:25:02;;;;;;;32.28;27.42;;;;;;;;;;5012733;28;20412;-76
2022/05/05 12:27:31;;;;;;;39.25;27.40;;;;;;;;;;5077423;28;20501;-72
2022/05/05 12:30:00;;;;;;;31.25;26.20;;;;;;;;;;5012145;28;20094;-71
2022/05/05 12:32:31;;;;;;;35.53;26.55;;;;;;;;;;5012585;28;20049;-72
2022/05/05 12:35:10;;;;;;;;;;;;;;;;;;5012573;28;20062;-71
2022/05/05 12:37:39;;;;;;;27.50;24.52;;;;;;;;;;5012165;28;19956;-72
2022/05/05 12:40:07;;;;;;;44.83;29.83;;;;;;;;;;5012579;28;20132;-71
2022/05/05 12:42:48;;;;;;;40.28;29.50;;;;;;;;;;5012132;28;20132;-71
2022/05/05 12:45:20;;;;;;;30.98;26.98;;;;;;;;;;5010271;28;20125;-71
2022/05/05 12:47:49;;;;;;;34.58;26.55;;;;;;;;;;5013616;28;20138;-71
2022/05/05 12:50:31;;;;;;;33.47;27.02;;;;;;;;;;5012510;28;20511;-71
2022/05/05 13:01:36;;;;;;;36.13;27.23;;;;;;;;;;5012395;28;20094;-72
2022/05/05 13:04:09;;;;;;;35.03;29.60;;;;;;;;;;5078930;28;20103;-72
2022/05/05 13:06:37;;;;;;;30.65;26.38;;;;;;;;;;5006085;28;20046;-74
2022/05/05 13:09:08;;;;;;;33.25;29.10;;;;;;;;;;5011920;28;20429;-75
2022/05/05 13:11:40;;;;;;;34.40;26.15;;;;;;;;;;5011908;28;20052;-75
2022/05/05 13:14:09;;;;;;;32.22;26.70;;;;;;;;;;5012190;28;20435;-75
2022/05/05 13:16:37;;;;;;;31.02;25.25;;;;;;;;;;5012765;28;20050;-75
2022/05/05 13:19:07;;;;;;;29.48;25.05;;;;;;;;;;5011400;28;20042;-75
2022/05/05 13:21:41;;;;;;;33.28;26.40;;;;;;;;;;5011559;28;20052;-68
2022/05/05 13:24:11;;;;;;;33.65;26.83;;;;;;;;;;5012369;28;20068;-67
2022/05/05 13:26:42;;;;;;;33.42;27.73;;;;;;;;;;5080629;28;20052;-66
2022/05/05 13:29:10;;;;;;;30.65;25.98;;;;;;;;;;5012648;28;20061;-67
2022/05/05 13:31:40;;;;;;;32.60;27.38;;;;;;;;;;5011339;28;20134;-68
2022/05/05 13:34:09;;;;;;;37.03;28.45;;;;;;;;;;5011849;28;20068;-70
2022/05/05 13:36:38;;;;;;;34.08;29.40;;;;;;;;;;5027526;28;20081;-66
2022/05/05 13:39:11;;;;;;;39.00;29.67;;;;;;;;;;5011929;28;20057;-67
2022/05/05 13:41:40;;;;;;;40.17;29.10;;;;;;;;;;5011399;28;20052;-68
2022/05/05 13:44:08;;;;;;;35.45;28.67;;;;;;;;;;4999273;28;20525;-68
2022/05/05 13:46:38;;;;;;;40.10;30.08;;;;;;;;;;5004986;28;20046;-67
2022/05/05 13:49:07;;;;;;;38.20;28.55;;;;;;;;;;5005097;28;20054;-67
2022/05/05 13:51:37;;;;;;;28.35;23.35;;;;;;;;;;5079817;28;20061;-67
2022/05/05 13:54:25;;;;;;;35.03;24.58;;;;;;;;;;5011632;28;20046;-67
2022/05/05 13:56:55;;;;;;;30.90;23.73;;;;;;;;;;5009789;28;20068;-67
2022/05/05 13:59:24;;;;;;;31.73;22.50;;;;;;;;;;5009250;28;20069;-67
2022/05/05 14:01:53;;;;;;;24.92;21.73;;;;;;;;;;5009449;28;20414;-67
2022/05/05 14:04:20;;;;;;;25.77;21.70;;;;;;;;;;5009334;28;20050;-67
2022/05/05 14:06:49;;;;;;;20.45;18.25;;;;;;;;;;4998949;28;20050;-67
2022/05/05 14:12:13;;;;;;;11.52;10.32;;;;;;;;;;5002162;28;20046;-67
2022/05/05 14:14:43;;;;;;;14.57;12.00;;;;;;;;;;5011371;28;20507;-67
2022/05/05 14:17:13;;;;;;;22.42;14.15;;;;;;;;;;5010940;28;20561;-68
2022/05/05 14:19:41;;;;;;;13.90;11.55;;;;;;;;;;5009378;28;20054;-68
2022/05/05 14:22:09;;;;;;;10.80;9.00;;;;;;;;;;5076103;28;20042;-67
2022/05/05 14:24:38;;;;;;;15.32;10.90;;;;;;;;;;5010886;28;20044;-69
2022/05/05 14:27:07;;;;;;;13.15;7.88;;;;;;;;;;5010111;28;20062;-69
2022/05/05 14:29:36;;;;;;;9.95;8.82;;;;;;;;;;5010627;28;20500;-69
2022/05/05 14:32:06;;;;;;;19.05;17.25;;;;;;;;;;5008301;28;20122;-68
2022/05/05 14:34:35;;;;;;;14.38;9.07;;;;;;;;;;5010124;28;20107;-68
2022/05/05 14:37:05;;;;;;;8.55;6.15;;;;;;;;;;5018519;28;20482;-68
2022/05/05 14:39:34;;;;;;;8.30;5.93;;;;;;;;;;5010473;28;20473;-68
2022/05/05 14:42:08;;;;;;;7.55;4.50;;;;;;;;;;5009687;28;20038;-70
2022/05/05 14:44:37;;;;;;;7.95;3.47;;;;;;;;;;5008844;28;20048;-69
2022/05/05 14:47:07;;;;;;;9.27;3.97;;;;;;;;;;5010564;28;20049;-68
2022/05/05 14:49:37;;;;;;;6.50;3.72;;;;;;;;;;5075475;28;20045;-70
2022/05/05 14:52:10;;;;;;;6.53;3.55;;;;;;;;;;5078905;28;20120;-69
2022/05/05 14:54:41;;;;;;;7.28;3.53;;;;;;;;;;5009587;28;20053;-69
2022/05/05 14:57:12;;;;;;;9.35;3.88;;;;;;;;;;5008301;28;20038;-69
2022/05/05 14:59:41;;;;;;;21.05;5.22;;;;;;;;;;5010541;28;20061;-69
2022/05/05 15:02:14;;;;;;;10.07;5.03;;;;;;;;;;5010600;28;20056;-69
2022/05/05 15:04:43;;;;;;;9.00;5.03;;;;;;;;;;5010782;28;20050;-70
2022/05/05 15:07:12;;;;;;;9.77;4.47;;;;;;;;;;5019803;28;20345;-69
2022/05/05 15:09:40;;;;;;;5.80;3.30;;;;;;;;;;5010568;28;20053;-69
2022/05/05 15:12:10;;;;;;;4.40;4.00;;;;;;;;;;5007793;28;20046;-67
2022/05/05 15:14:38;;;;;;;8.18;3.95;;;;;;;;;;5010257;28;20050;-68
2022/05/05 15:17:07;;;;;;;4.82;3.22;;;;;;;;;;5010116;28;20854;-70
2022/05/05 15:19:36;;;;;;;8.73;2.97;;;;;;;;;;5010418;28;20050;-68
2022/05/05 15:22:05;;;;;;;4.63;2.65;;;;;;;;;;5010609;28;20050;-68
2022/05/05 15:24:34;;;;;;;4.38;2.30;;;;;;;;;;5010008;28;20050;-68
2022/05/05 15:27:04;;;;;;;6.30;2.85;;;;;;;;;;5007158;28;20048;-68
2022/05/05 15:29:33;;;;;;;9.18;2.90;;;;;;;;;;5009712;28;20504;-68
2022/05/05 15:32:02;;;;;;;5.63;3.00;;;;;;;;;;5010417;28;20048;-68
2022/05/05 15:34:31;;;;;;;4.28;3.15;;;;;;;;;;5009628;28;20052;-68
2022/05/05 15:37:01;;;;;;;5.80;2.60;;;;;;;;;;5010633;28;20046;-68
2022/05/05 15:39:30;;;;;;;11.80;2.92;;;;;;;;;;5010116;28;20046;-69
2022/05/05 15:41:58;;;;;;;8.82;3.47;;;;;;;;;;5009621;28;20089;-69
2022/05/05 15:44:31;;;;;;;5.70;3.17;;;;;;;;;;5010221;28;20053;-69
2022/05/05 15:46:59;;;;;;;6.75;4.07;;;;;;;;;;5009386;28;20065;-69